createdAt,value
2018-05-25T00:01:07.851Z,1027.10
2018-05-25T00:02:35.383Z,1027.12
2018-05-25T00:04:02.624Z,1027.10
2018-05-25T00:05:29.020Z,1027.11
2018-05-25T00:06:56.425Z,1027.13
2018-05-25T00:08:23.153Z,1027.12
2018-05-25T00:09:50.305Z,1027.11
2018-05-25T00:11:17.815Z,1027.12
2018-05-25T00:12:44.367Z,1027.11
2018-05-25T00:14:11.690Z,1027.10
2018-05-25T00:15:39.037Z,1027.09
2018-05-25T00:17:06.405Z,1027.10
2018-05-25T00:18:33.208Z,1027.10
2018-05-25T00:20:00.125Z,1027.11
2018-05-25T00:21:26.742Z,1027.10
2018-05-25T00:22:54.298Z,1027.11
2018-05-25T00:24:21.053Z,1027.12
2018-05-25T00:25:48.319Z,1027.12
2018-05-25T00:27:15.683Z,1027.11
2018-05-25T00:28:43.082Z,1027.11
2018-05-25T00:30:10.447Z,1027.13
2018-05-25T00:31:37.753Z,1027.13
2018-05-25T00:33:05.142Z,1027.15
2018-05-25T00:34:32.433Z,1027.14
2018-05-25T00:35:59.810Z,1027.13
2018-05-25T00:37:27.036Z,1027.11
2018-05-25T00:38:54.155Z,1027.12
2018-05-25T00:40:21.429Z,1027.12
2018-05-25T00:41:48.734Z,1027.11
2018-05-25T00:43:16.124Z,1027.10
2018-05-25T00:44:43.162Z,1027.10
2018-05-25T00:46:11.233Z,1027.11
2018-05-25T00:47:37.780Z,1027.11
2018-05-25T00:49:05.245Z,1027.10
2018-05-25T00:50:32.399Z,1027.08
2018-05-25T00:51:59.722Z,1027.06
2018-05-25T00:53:26.462Z,1027.04
2018-05-25T00:54:53.890Z,1027.06
2018-05-25T00:56:21.158Z,1027.05
2018-05-25T00:57:48.529Z,1027.04
2018-05-25T00:59:15.945Z,1027.05
2018-05-25T01:00:43.378Z,1027.06
2018-05-25T01:02:10.029Z,1027.08
2018-05-25T01:03:37.242Z,1027.09
2018-05-25T01:05:03.693Z,1027.12
2018-05-25T01:06:30.972Z,1027.14
2018-05-25T01:07:58.315Z,1027.19
2018-05-25T01:09:25.437Z,1027.18
2018-05-25T01:10:52.329Z,1027.18
2018-05-25T01:12:19.704Z,1027.18
2018-05-25T01:13:46.384Z,1027.19
2018-05-25T01:15:12.920Z,1027.19
2018-05-25T01:16:40.238Z,1027.18
2018-05-25T01:18:07.845Z,1027.19
2018-05-25T01:19:35.140Z,1027.15
2018-05-25T01:21:01.724Z,1027.13
2018-05-25T01:22:29.202Z,1027.13
2018-05-25T01:23:56.006Z,1027.14
2018-05-25T01:25:22.868Z,1027.15
2018-05-25T01:26:49.389Z,1027.15
2018-05-25T01:28:16.566Z,1027.13
2018-05-25T01:29:43.914Z,1027.13
2018-05-25T01:31:11.189Z,1027.12
2018-05-25T01:32:38.599Z,1027.12
2018-05-25T01:34:05.929Z,1027.09
2018-05-25T01:35:33.375Z,1027.09
2018-05-25T01:37:00.070Z,1027.08
2018-05-25T01:38:27.208Z,1027.09
2018-05-25T01:39:54.566Z,1027.06
2018-05-25T01:41:21.153Z,1027.06
2018-05-25T01:42:48.486Z,1027.07
2018-05-25T01:44:15.305Z,1027.07
2018-05-25T01:45:42.062Z,1027.07
2018-05-25T01:47:08.504Z,1027.06
2018-05-25T01:48:35.953Z,1027.06
2018-05-25T01:50:02.522Z,1027.09
2018-05-25T01:51:29.770Z,1027.11
2018-05-25T01:52:56.708Z,1027.13
2018-05-25T01:54:23.904Z,1027.11
2018-05-25T01:55:51.150Z,1027.13
2018-05-25T01:57:18.576Z,1027.13
2018-05-25T01:58:46.088Z,1027.12
2018-05-25T02:00:13.381Z,1027.12
2018-05-25T02:01:40.743Z,1027.11
2018-05-25T02:03:08.142Z,1027.11
2018-05-25T02:04:35.832Z,1027.12
2018-05-25T02:06:03.003Z,1027.11
2018-05-25T02:07:30.557Z,1027.11
2018-05-25T02:08:57.131Z,1027.10
2018-05-25T02:10:24.590Z,1027.13
2018-05-25T02:11:51.538Z,1027.12
2018-05-25T02:13:18.804Z,1027.11
2018-05-25T02:14:45.703Z,1027.10
2018-05-25T02:16:12.920Z,1027.11
2018-05-25T02:17:40.233Z,1027.13
2018-05-25T02:19:07.521Z,1027.14
2018-05-25T02:20:35.035Z,1027.13
2018-05-25T02:22:02.542Z,1027.14
2018-05-25T02:23:29.981Z,1027.12
2018-05-25T02:24:57.370Z,1027.10
2018-05-25T02:26:24.656Z,1027.09
2018-05-25T02:27:51.705Z,1027.10
2018-05-25T02:29:19.158Z,1027.09
2018-05-25T02:30:46.576Z,1027.05
2018-05-25T02:32:13.915Z,1027.04
2018-05-25T02:33:41.383Z,1027.02
2018-05-25T02:35:07.730Z,1027.04
2018-05-25T02:36:35.157Z,1027.02
2018-05-25T02:38:02.473Z,1027.00
2018-05-25T02:39:29.829Z,1027.02
2018-05-25T02:40:56.739Z,1027.08
2018-05-25T02:42:23.987Z,1027.10
2018-05-25T02:43:51.345Z,1027.11
2018-05-25T02:45:18.062Z,1027.14
2018-05-25T02:46:44.701Z,1027.12
2018-05-25T02:48:12.043Z,1027.13
2018-05-25T02:49:39.545Z,1027.15
2018-05-25T02:51:06.877Z,1027.14
2018-05-25T02:52:34.288Z,1027.10
2018-05-25T02:54:01.041Z,1027.13
2018-05-25T02:55:28.425Z,1027.13
2018-05-25T02:56:55.881Z,1027.11
2018-05-25T02:58:23.052Z,1027.11
2018-05-25T02:59:50.421Z,1027.08
2018-05-25T03:01:17.799Z,1027.09
2018-05-25T03:02:45.227Z,1027.07
2018-05-25T03:04:12.598Z,1027.05
2018-05-25T03:05:39.192Z,1027.05
2018-05-25T03:07:06.613Z,1027.06
2018-05-25T03:08:33.838Z,1027.05
2018-05-25T03:10:01.035Z,1027.05
2018-05-25T03:11:28.526Z,1027.04
2018-05-25T03:12:55.722Z,1027.03
2018-05-25T03:14:22.646Z,1027.01
2018-05-25T03:15:49.935Z,1027.01
2018-05-25T03:17:17.104Z,1027.00
2018-05-25T03:18:43.955Z,1026.99
2018-05-25T03:20:11.435Z,1027.00
2018-05-25T03:21:38.708Z,1026.98
2018-05-25T03:23:06.181Z,1026.97
2018-05-25T03:24:32.732Z,1026.99
2018-05-25T03:26:00.035Z,1026.98
2018-05-25T03:27:27.168Z,1026.94
2018-05-25T03:28:54.468Z,1026.93
2018-05-25T03:30:21.515Z,1026.95
2018-05-25T03:31:48.939Z,1026.96
2018-05-25T03:33:16.234Z,1026.96
2018-05-25T03:34:42.858Z,1026.96
2018-05-25T03:36:09.701Z,1026.96
2018-05-25T03:37:37.023Z,1026.96
2018-05-25T03:39:04.266Z,1026.95
2018-05-25T03:40:31.043Z,1026.94
2018-05-25T03:41:58.263Z,1026.98
2018-05-25T03:43:25.361Z,1027.00
2018-05-25T03:44:52.686Z,1027.03
2018-05-25T03:46:20.256Z,1027.03
2018-05-25T03:47:47.548Z,1027.03
2018-05-25T03:49:15.060Z,1027.03
2018-05-25T03:50:42.440Z,1027.00
2018-05-25T03:52:09.839Z,1027.01
2018-05-25T03:53:36.861Z,1026.99
2018-05-25T03:55:04.270Z,1027.00
2018-05-25T03:56:31.182Z,1027.02
2018-05-25T03:57:58.226Z,1027.03
2018-05-25T03:59:25.367Z,1027.03
2018-05-25T04:00:52.475Z,1027.05
2018-05-25T04:02:19.846Z,1027.04
2018-05-25T04:03:47.011Z,1027.04
2018-05-25T04:05:14.448Z,1027.06
2018-05-25T04:06:41.860Z,1027.07
2018-05-25T04:08:09.084Z,1027.05
2018-05-25T04:09:36.472Z,1027.06
2018-05-25T04:11:03.743Z,1027.05
2018-05-25T04:12:30.977Z,1027.02
2018-05-25T04:13:58.438Z,1027.03
2018-05-25T04:15:25.587Z,1027.04
2018-05-25T04:16:52.647Z,1027.03
2018-05-25T04:18:19.777Z,1027.03
2018-05-25T04:19:47.190Z,1027.02
2018-05-25T04:21:13.898Z,1027.06
2018-05-25T04:22:41.364Z,1027.03
2018-05-25T04:24:08.487Z,1027.02
2018-05-25T04:25:35.338Z,1027.05
2018-05-25T04:27:02.423Z,1027.06
2018-05-25T04:28:29.714Z,1027.09
2018-05-25T04:29:57.217Z,1027.07
2018-05-25T04:31:23.979Z,1027.07
2018-05-25T04:32:50.907Z,1027.08
2018-05-25T04:34:18.006Z,1027.08
2018-05-25T04:35:45.346Z,1027.12
2018-05-25T04:37:12.056Z,1027.14
2018-05-25T04:38:39.450Z,1027.15
2018-05-25T04:40:06.811Z,1027.14
2018-05-25T04:41:34.154Z,1027.15
2018-05-25T04:43:01.523Z,1027.16
2018-05-25T04:44:29.106Z,1027.16
2018-05-25T04:45:56.383Z,1027.15
2018-05-25T04:47:23.508Z,1027.16
2018-05-25T04:48:50.888Z,1027.12
2018-05-25T04:50:18.270Z,1027.12
2018-05-25T04:51:45.666Z,1027.14
2018-05-25T04:53:13.235Z,1027.12
2018-05-25T04:54:40.010Z,1027.12
2018-05-25T04:56:07.364Z,1027.09
2018-05-25T04:57:34.862Z,1027.08
2018-05-25T04:59:02.211Z,1027.04
2018-05-25T05:00:29.664Z,1027.03
2018-05-25T05:01:57.087Z,1027.02
2018-05-25T05:03:24.414Z,1026.99
2018-05-25T05:04:51.444Z,1026.98
2018-05-25T05:06:18.743Z,1026.98
2018-05-25T05:07:46.210Z,1027.02
2018-05-25T05:09:13.851Z,1027.03
2018-05-25T05:10:41.305Z,1026.99
2018-05-25T05:12:08.565Z,1026.95
2018-05-25T05:13:35.526Z,1026.95
2018-05-25T05:15:02.902Z,1026.95
2018-05-25T05:16:30.036Z,1026.95
2018-05-25T05:17:57.208Z,1026.96
2018-05-25T05:19:24.396Z,1026.94
2018-05-25T05:20:51.432Z,1026.93
2018-05-25T05:22:18.733Z,1026.90
2018-05-25T05:23:46.142Z,1026.90
2018-05-25T05:25:13.468Z,1026.90
2018-05-25T05:26:41.115Z,1026.92
2018-05-25T05:28:08.439Z,1026.91
2018-05-25T05:29:35.867Z,1026.93
2018-05-25T05:31:02.710Z,1026.95
2018-05-25T05:32:29.990Z,1026.94
2018-05-25T05:33:57.581Z,1026.90
2018-05-25T05:35:24.883Z,1026.89
2018-05-25T05:36:52.413Z,1026.89
2018-05-25T05:38:19.851Z,1026.90
2018-05-25T05:39:46.376Z,1026.86
2018-05-25T05:41:13.624Z,1026.85
2018-05-25T05:42:40.956Z,1026.87
2018-05-25T05:44:08.521Z,1026.84
2018-05-25T05:45:35.642Z,1026.80
2018-05-25T05:47:03.249Z,1026.79
2018-05-25T05:48:30.723Z,1026.80
2018-05-25T05:49:58.225Z,1026.79
2018-05-25T05:51:25.798Z,1026.77
2018-05-25T05:52:53.197Z,1026.77
2018-05-25T05:54:20.327Z,1026.78
2018-05-25T05:55:47.923Z,1026.76
2018-05-25T05:57:15.509Z,1026.78
2018-05-25T05:58:42.819Z,1026.77
2018-05-25T06:00:10.319Z,1026.80
2018-05-25T06:01:37.740Z,1026.81
2018-05-25T06:03:05.313Z,1026.76
2018-05-25T06:04:32.769Z,1026.74
2018-05-25T06:06:00.249Z,1026.71
2018-05-25T06:07:27.598Z,1026.70
2018-05-25T06:08:54.931Z,1026.75
2018-05-25T06:10:22.158Z,1026.70
2018-05-25T06:11:49.641Z,1026.68
2018-05-25T06:13:16.991Z,1026.69
2018-05-25T06:14:44.454Z,1026.66
2018-05-25T06:16:11.790Z,1026.66
2018-05-25T06:17:39.358Z,1026.66
2018-05-25T06:19:06.848Z,1026.67
2018-05-25T06:20:34.416Z,1026.67
2018-05-25T06:22:01.911Z,1026.65
2018-05-25T06:23:29.454Z,1026.62
2018-05-25T06:24:56.983Z,1026.66
2018-05-25T06:26:24.294Z,1026.60
2018-05-25T06:27:51.367Z,1026.61
2018-05-25T06:29:18.812Z,1026.64
2018-05-25T06:30:46.269Z,1026.63
2018-05-25T06:32:13.853Z,1026.64
2018-05-25T06:33:41.531Z,1026.64
2018-05-25T06:35:08.959Z,1026.69
2018-05-25T06:36:36.458Z,1026.69
2018-05-25T06:38:04.163Z,1026.72
2018-05-25T06:39:31.548Z,1026.71
2018-05-25T06:40:59.201Z,1026.72
2018-05-25T06:42:26.199Z,1026.73
2018-05-25T06:43:53.770Z,1026.74
2018-05-25T06:45:21.104Z,1026.74
2018-05-25T06:46:48.528Z,1026.74
2018-05-25T06:48:16.119Z,1026.71
2018-05-25T06:49:43.695Z,1026.72
2018-05-25T06:51:10.577Z,1026.73
2018-05-25T06:52:37.712Z,1026.71
2018-05-25T06:54:05.456Z,1026.71
2018-05-25T06:55:32.293Z,1026.69
2018-05-25T06:56:59.677Z,1026.69
2018-05-25T06:58:27.059Z,1026.66
2018-05-25T06:59:54.480Z,1026.69
2018-05-25T07:01:21.831Z,1026.68
2018-05-25T07:02:49.252Z,1026.69
2018-05-25T07:04:16.876Z,1026.73
2018-05-25T07:05:44.393Z,1026.72
2018-05-25T07:07:11.829Z,1026.71
2018-05-25T07:08:39.414Z,1026.64
2018-05-25T07:10:06.929Z,1026.66
2018-05-25T07:11:34.513Z,1026.62
2018-05-25T07:13:02.017Z,1026.60
2018-05-25T07:14:29.607Z,1026.58
2018-05-25T07:15:56.978Z,1026.54
2018-05-25T07:17:24.328Z,1026.51
2018-05-25T07:18:51.690Z,1026.50
2018-05-25T07:20:19.331Z,1026.49
2018-05-25T07:21:46.886Z,1026.47
2018-05-25T07:23:14.009Z,1026.48
2018-05-25T07:24:41.445Z,1026.51
2018-05-25T07:26:08.446Z,1026.50
2018-05-25T07:27:35.964Z,1026.47
2018-05-25T07:29:03.367Z,1026.46
2018-05-25T07:30:30.910Z,1026.48
2018-05-25T07:31:58.290Z,1026.45
2018-05-25T07:33:25.864Z,1026.43
2018-05-25T07:34:53.309Z,1026.45
2018-05-25T07:36:20.734Z,1026.41
2018-05-25T07:37:48.189Z,1026.42
2018-05-25T07:39:15.749Z,1026.47
2018-05-25T07:40:43.362Z,1026.48
2018-05-25T07:42:10.771Z,1026.46
2018-05-25T07:43:38.158Z,1026.46
2018-05-25T07:45:05.437Z,1026.43
2018-05-25T07:46:33.260Z,1026.42
2018-05-25T07:48:00.622Z,1026.44
2018-05-25T07:49:28.108Z,1026.44
2018-05-25T07:50:55.348Z,1026.42
2018-05-25T07:52:22.787Z,1026.42
2018-05-25T07:53:50.254Z,1026.41
2018-05-25T07:55:17.901Z,1026.41
2018-05-25T07:56:45.209Z,1026.41
2018-05-25T07:58:12.720Z,1026.38
2018-05-25T07:59:40.032Z,1026.39
2018-05-25T08:01:07.546Z,1026.41
2018-05-25T08:02:35.143Z,1026.41
2018-05-25T08:04:02.567Z,1026.43
2018-05-25T08:05:29.997Z,1026.44
2018-05-25T08:06:57.638Z,1026.40
2018-05-25T08:08:25.027Z,1026.42
2018-05-25T08:09:52.124Z,1026.38
2018-05-25T08:11:19.896Z,1026.40
2018-05-25T08:12:47.395Z,1026.36
2018-05-25T08:14:14.379Z,1026.31
2018-05-25T08:15:41.846Z,1026.31
2018-05-25T08:17:09.415Z,1026.31
2018-05-25T08:18:36.433Z,1026.29
2018-05-25T08:20:03.822Z,1026.30
2018-05-25T08:21:31.494Z,1026.34
2018-05-25T08:22:59.010Z,1026.36
2018-05-25T08:24:26.653Z,1026.34
2018-05-25T08:25:53.905Z,1026.34
2018-05-25T08:27:21.467Z,1026.35
2018-05-25T08:28:48.886Z,1026.37
2018-05-25T08:30:16.229Z,1026.36
2018-05-25T08:31:43.688Z,1026.31
2018-05-25T08:33:11.340Z,1026.31
2018-05-25T08:34:38.765Z,1026.33
2018-05-25T08:36:06.235Z,1026.32
2018-05-25T08:37:33.634Z,1026.32
2018-05-25T08:39:01.252Z,1026.31
2018-05-25T08:40:28.816Z,1026.34
2018-05-25T08:41:56.354Z,1026.34
2018-05-25T08:43:23.752Z,1026.34
2018-05-25T08:44:51.178Z,1026.33
2018-05-25T08:46:18.763Z,1026.29
2018-05-25T08:47:46.210Z,1026.27
2018-05-25T08:49:13.742Z,1026.25
2018-05-25T08:50:41.161Z,1026.24
2018-05-25T08:52:08.868Z,1026.22
2018-05-25T08:53:36.424Z,1026.23
2018-05-25T08:55:03.837Z,1026.21
2018-05-25T08:56:31.541Z,1026.21
2018-05-25T08:57:58.998Z,1026.27
2018-05-25T08:59:26.371Z,1026.24
2018-05-25T09:00:53.792Z,1026.24
2018-05-25T09:02:21.430Z,1026.24
2018-05-25T09:03:48.285Z,1026.23
2018-05-25T09:05:15.774Z,1026.23
2018-05-25T09:06:43.474Z,1026.20
2018-05-25T09:08:10.569Z,1026.19
2018-05-25T09:09:37.837Z,1026.20
2018-05-25T09:11:05.432Z,1026.22
2018-05-25T09:12:32.725Z,1026.17
2018-05-25T09:14:00.254Z,1026.16
2018-05-25T09:15:27.902Z,1026.17
2018-05-25T09:16:55.442Z,1026.20
2018-05-25T09:18:22.466Z,1026.18
2018-05-25T09:19:50.185Z,1026.17
2018-05-25T09:21:17.740Z,1026.18
2018-05-25T09:22:44.973Z,1026.19
2018-05-25T09:24:12.202Z,1026.19
2018-05-25T09:25:39.864Z,1026.20
2018-05-25T09:27:07.359Z,1026.17
2018-05-25T09:28:34.877Z,1026.19
2018-05-25T09:30:02.398Z,1026.14
2018-05-25T09:31:29.855Z,1026.14
2018-05-25T09:32:57.376Z,1026.16
2018-05-25T09:34:25.110Z,1026.15
2018-05-25T09:35:52.562Z,1026.18
2018-05-25T09:37:20.185Z,1026.13
2018-05-25T09:38:47.468Z,1026.12
2018-05-25T09:40:14.436Z,1026.07
2018-05-25T09:41:41.668Z,1026.08
2018-05-25T09:43:08.726Z,1026.06
2018-05-25T09:44:36.352Z,1026.09
2018-05-25T09:46:03.845Z,1026.08
2018-05-25T09:47:31.356Z,1026.10
2018-05-25T09:48:59.028Z,1026.09
2018-05-25T09:50:26.280Z,1026.12
2018-05-25T09:51:53.967Z,1026.13
2018-05-25T09:53:21.084Z,1026.11
2018-05-25T09:54:48.273Z,1026.10
2018-05-25T09:56:15.333Z,1026.11
2018-05-25T09:57:42.576Z,1026.11
2018-05-25T09:59:10.198Z,1026.13
2018-05-25T10:00:37.302Z,1026.13
2018-05-25T10:02:04.934Z,1026.08
2018-05-25T10:03:32.535Z,1026.13
2018-05-25T10:04:59.347Z,1026.11
2018-05-25T10:06:26.146Z,1026.12
2018-05-25T10:07:53.779Z,1026.10
2018-05-25T10:09:20.662Z,1026.05
2018-05-25T10:10:48.580Z,1026.08
2018-05-25T10:12:15.838Z,1026.05
2018-05-25T10:13:43.146Z,1026.03
2018-05-25T10:15:10.769Z,1026.04
2018-05-25T10:16:38.322Z,1026.01
2018-05-25T10:18:05.485Z,1026.08
2018-05-25T10:19:32.432Z,1026.04
2018-05-25T10:20:59.779Z,1026.02
2018-05-25T10:22:27.039Z,1026.04
2018-05-25T10:23:54.526Z,1026.04
2018-05-25T10:25:22.102Z,1026.03
2018-05-25T10:26:49.749Z,1026.03
2018-05-25T10:28:17.397Z,1026.02
2018-05-25T10:29:45.211Z,1026.00
2018-05-25T10:31:12.346Z,1025.98
2018-05-25T10:32:39.702Z,1026.00
2018-05-25T10:34:07.314Z,1026.00
2018-05-25T10:35:34.985Z,1026.02
2018-05-25T10:37:02.342Z,1026.03
2018-05-25T10:38:29.947Z,1026.03
2018-05-25T10:39:57.639Z,1026.02
2018-05-25T10:41:24.720Z,1026.00
2018-05-25T10:42:51.987Z,1025.94
2018-05-25T10:44:19.384Z,1025.96
2018-05-25T10:45:46.950Z,1025.89
2018-05-25T10:47:14.560Z,1025.96
2018-05-25T10:48:42.209Z,1025.93
2018-05-25T10:50:09.789Z,1025.92
2018-05-25T10:51:37.172Z,1025.95
2018-05-25T10:53:04.042Z,1025.94
2018-05-25T10:54:31.105Z,1025.90
2018-05-25T10:55:58.712Z,1025.90
2018-05-25T10:57:25.782Z,1025.88
2018-05-25T10:58:53.235Z,1025.91
2018-05-25T11:00:20.615Z,1025.88
2018-05-25T11:01:48.337Z,1025.88
2018-05-25T11:03:15.875Z,1025.86
2018-05-25T11:04:43.478Z,1025.89
2018-05-25T11:06:11.045Z,1025.84
2018-05-25T11:07:38.692Z,1025.84
2018-05-25T11:09:05.947Z,1025.81
2018-05-25T11:10:33.309Z,1025.80
2018-05-25T11:12:01.068Z,1025.79
2018-05-25T11:13:28.665Z,1025.83
2018-05-25T11:14:56.153Z,1025.79
2018-05-25T11:16:23.898Z,1025.78
2018-05-25T11:17:51.468Z,1025.79
2018-05-25T11:19:19.032Z,1025.74
2018-05-25T11:20:46.246Z,1025.75
2018-05-25T11:22:13.928Z,1025.79
2018-05-25T11:23:41.508Z,1025.78
2018-05-25T11:25:09.133Z,1025.80
2018-05-25T11:26:36.744Z,1025.77
2018-05-25T11:28:04.289Z,1025.76
2018-05-25T11:29:31.922Z,1025.72
2018-05-25T11:30:59.371Z,1025.72
2018-05-25T11:32:27.178Z,1025.71
2018-05-25T11:33:54.605Z,1025.72
2018-05-25T11:35:22.127Z,1025.68
2018-05-25T11:36:49.780Z,1025.70
2018-05-25T11:38:17.434Z,1025.70
2018-05-25T11:39:45.208Z,1025.68
2018-05-25T11:41:12.925Z,1025.69
2018-05-25T11:42:40.393Z,1025.67
2018-05-25T11:44:08.054Z,1025.66
2018-05-25T11:45:35.696Z,1025.67
2018-05-25T11:47:03.039Z,1025.69
2018-05-25T11:48:29.983Z,1025.63
2018-05-25T11:49:57.551Z,1025.68
2018-05-25T11:51:25.201Z,1025.67
2018-05-25T11:52:52.826Z,1025.68
2018-05-25T11:54:19.618Z,1025.65
2018-05-25T11:55:46.856Z,1025.67
2018-05-25T11:57:14.511Z,1025.64
2018-05-25T11:58:42.131Z,1025.67
2018-05-25T12:00:09.716Z,1025.66
2018-05-25T12:01:37.395Z,1025.61
2018-05-25T12:03:04.890Z,1025.63
2018-05-25T12:04:32.197Z,1025.64
2018-05-25T12:05:59.646Z,1025.68
2018-05-25T12:07:26.709Z,1025.68
2018-05-25T12:08:54.137Z,1025.66
2018-05-25T12:10:21.775Z,1025.67
2018-05-25T12:11:48.855Z,1025.67
2018-05-25T12:13:16.369Z,1025.66
2018-05-25T12:14:43.916Z,1025.68
2018-05-25T12:16:11.738Z,1025.71
2018-05-25T12:17:39.430Z,1025.69
2018-05-25T12:19:07.043Z,1025.69
2018-05-25T12:20:34.819Z,1025.73
2018-05-25T12:22:02.480Z,1025.73
2018-05-25T12:23:29.660Z,1025.74
2018-05-25T12:24:57.229Z,1025.70
2018-05-25T12:26:24.435Z,1025.70
2018-05-25T12:27:51.946Z,1025.70
2018-05-25T12:29:19.080Z,1025.71
2018-05-25T12:30:46.567Z,1025.67
2018-05-25T12:32:14.148Z,1025.69
2018-05-25T12:33:41.832Z,1025.68
2018-05-25T12:35:09.414Z,1025.68
2018-05-25T12:36:36.954Z,1025.76
2018-05-25T12:38:04.631Z,1025.75
2018-05-25T12:39:32.296Z,1025.74
2018-05-25T12:40:59.114Z,1025.73
2018-05-25T12:42:26.517Z,1025.73
2018-05-25T12:43:53.945Z,1025.72
2018-05-25T12:45:21.076Z,1025.69
2018-05-25T12:46:48.817Z,1025.67
2018-05-25T12:48:16.267Z,1025.64
2018-05-25T12:49:43.162Z,1025.63
2018-05-25T12:51:10.886Z,1025.62
2018-05-25T12:52:37.941Z,1025.57
2018-05-25T12:54:05.479Z,1025.58
2018-05-25T12:55:32.706Z,1025.56
2018-05-25T12:57:00.319Z,1025.57
2018-05-25T12:58:28.130Z,1025.56
2018-05-25T12:59:54.957Z,1025.58
2018-05-25T13:01:22.570Z,1025.57
2018-05-25T13:02:50.290Z,1025.59
2018-05-25T13:04:14.825Z,1025.60
2018-05-25T13:05:45.396Z,1025.53
2018-05-25T13:07:12.881Z,1025.54
2018-05-25T13:08:40.663Z,1025.51
2018-05-25T13:10:08.226Z,1025.48
2018-05-25T13:11:36.004Z,1025.43
2018-05-25T13:13:03.604Z,1025.41
2018-05-25T13:14:31.257Z,1025.44
2018-05-25T13:15:58.647Z,1025.39
2018-05-25T13:17:26.338Z,1025.42
2018-05-25T13:18:53.789Z,1025.44
2018-05-25T13:20:21.101Z,1025.43
2018-05-25T13:21:48.711Z,1025.40
2018-05-25T13:23:16.466Z,1025.34
2018-05-25T13:24:43.717Z,1025.34
2018-05-25T13:26:11.256Z,1025.34
2018-05-25T13:27:38.923Z,1025.31
2018-05-25T13:29:06.616Z,1025.35
2018-05-25T13:30:33.707Z,1025.32
2018-05-25T13:32:01.281Z,1025.33
2018-05-25T13:33:28.775Z,1025.34
2018-05-25T13:34:56.336Z,1025.37
2018-05-25T13:36:23.274Z,1025.34
2018-05-25T13:37:50.928Z,1025.31
2018-05-25T13:39:18.537Z,1025.30
2018-05-25T13:40:46.141Z,1025.25
2018-05-25T13:42:13.721Z,1025.28
2018-05-25T13:43:41.332Z,1025.29
2018-05-25T13:45:08.928Z,1025.29
2018-05-25T13:46:36.584Z,1025.31
2018-05-25T13:48:03.946Z,1025.36
2018-05-25T13:49:31.036Z,1025.35
2018-05-25T13:50:58.316Z,1025.34
2018-05-25T13:52:25.750Z,1025.30
2018-05-25T13:53:53.004Z,1025.30
2018-05-25T13:55:20.417Z,1025.36
2018-05-25T13:56:48.037Z,1025.33
2018-05-25T13:58:15.613Z,1025.32
2018-05-25T13:59:43.135Z,1025.36
2018-05-25T14:01:10.124Z,1025.39
2018-05-25T14:02:37.665Z,1025.37
2018-05-25T14:04:05.114Z,1025.39
2018-05-25T14:05:32.827Z,1025.42
2018-05-25T14:07:00.384Z,1025.45
2018-05-25T14:08:27.413Z,1025.43
2018-05-25T14:09:54.801Z,1025.41
2018-05-25T14:11:22.515Z,1025.38
2018-05-25T14:12:50.047Z,1025.35
2018-05-25T14:14:17.661Z,1025.33
2018-05-25T14:15:45.278Z,1025.34
2018-05-25T14:17:12.829Z,1025.37
2018-05-25T14:18:40.173Z,1025.33
2018-05-25T14:20:07.718Z,1025.37
2018-05-25T14:21:35.144Z,1025.36
2018-05-25T14:23:02.554Z,1025.39
2018-05-25T14:24:29.908Z,1025.41
2018-05-25T14:25:57.603Z,1025.40
2018-05-25T14:27:25.062Z,1025.38
2018-05-25T14:28:52.757Z,1025.34
2018-05-25T14:30:20.415Z,1025.35
2018-05-25T14:31:47.795Z,1025.33
2018-05-25T14:33:15.515Z,1025.40
2018-05-25T14:34:42.911Z,1025.37
2018-05-25T14:36:10.463Z,1025.38
2018-05-25T14:37:37.667Z,1025.41
2018-05-25T14:39:05.018Z,1025.41
2018-05-25T14:40:32.316Z,1025.43
2018-05-25T14:42:00.061Z,1025.41
2018-05-25T14:43:27.450Z,1025.45
2018-05-25T14:44:54.722Z,1025.45
2018-05-25T14:46:22.324Z,1025.51
2018-05-25T14:47:49.778Z,1025.43
2018-05-25T14:49:17.341Z,1025.47
2018-05-25T14:50:44.691Z,1025.47
2018-05-25T14:52:12.176Z,1025.47
2018-05-25T14:53:39.325Z,1025.45
2018-05-25T14:55:06.466Z,1025.46
2018-05-25T14:56:33.480Z,1025.46
2018-05-25T14:58:02.073Z,1025.46
2018-05-25T14:59:28.341Z,1025.47
2018-05-25T15:00:55.568Z,1025.46
2018-05-25T15:02:23.307Z,1025.45
2018-05-25T15:03:50.337Z,1025.44
2018-05-25T15:05:18.031Z,1025.40
2018-05-25T15:06:47.349Z,1025.39
2018-05-25T15:08:12.986Z,1025.37
2018-05-25T15:09:40.584Z,1025.39
2018-05-25T15:11:07.967Z,1025.35
2018-05-25T15:12:35.445Z,1025.32
2018-05-25T15:14:02.975Z,1025.35
2018-05-25T15:15:29.964Z,1025.35
2018-05-25T15:16:57.178Z,1025.33
2018-05-25T15:18:24.718Z,1025.29
2018-05-25T15:19:52.222Z,1025.28
2018-05-25T15:21:19.763Z,1025.25
2018-05-25T15:22:47.222Z,1025.24
2018-05-25T15:24:14.470Z,1025.24
2018-05-25T15:25:42.018Z,1025.23
2018-05-25T15:27:09.005Z,1025.20
2018-05-25T15:28:36.777Z,1025.19
2018-05-25T15:30:03.726Z,1025.19
2018-05-25T15:31:31.236Z,1025.17
2018-05-25T15:32:58.752Z,1025.19
2018-05-25T15:34:26.255Z,1025.14
2018-05-25T15:35:53.298Z,1025.10
2018-05-25T15:37:20.619Z,1025.05
2018-05-25T15:38:47.974Z,1025.01
2018-05-25T15:40:15.646Z,1024.98
2018-05-25T15:41:43.261Z,1024.95
2018-05-25T15:43:10.692Z,1024.95
2018-05-25T15:44:38.018Z,1024.95
2018-05-25T15:46:05.575Z,1024.89
2018-05-25T15:47:35.776Z,1024.89
2018-05-25T15:48:59.957Z,1024.87
2018-05-25T15:50:27.284Z,1024.90
2018-05-25T15:51:54.751Z,1024.90
2018-05-25T15:53:22.154Z,1024.87
2018-05-25T15:54:49.593Z,1024.90
2018-05-25T15:56:17.138Z,1024.84
2018-05-25T15:57:44.611Z,1024.81
2018-05-25T15:59:12.015Z,1024.82
2018-05-25T16:00:39.562Z,1024.79
2018-05-25T16:02:06.928Z,1024.79
2018-05-25T16:03:34.435Z,1024.73
2018-05-25T16:05:01.787Z,1024.72
2018-05-25T16:06:29.354Z,1024.70
2018-05-25T16:07:56.602Z,1024.69
2018-05-25T16:09:24.098Z,1024.67
2018-05-25T16:10:51.642Z,1024.70
2018-05-25T16:12:19.430Z,1024.68
2018-05-25T16:13:46.249Z,1024.73
2018-05-25T16:15:13.845Z,1024.72
2018-05-25T16:16:41.374Z,1024.73
2018-05-25T16:18:08.966Z,1024.75
2018-05-25T16:19:36.572Z,1024.75
2018-05-25T16:21:04.202Z,1024.72
2018-05-25T16:22:31.324Z,1024.75
2018-05-25T16:23:58.351Z,1024.76
2018-05-25T16:25:26.032Z,1024.79
2018-05-25T16:26:53.687Z,1024.77
2018-05-25T16:28:20.984Z,1024.79
2018-05-25T16:29:47.977Z,1024.79
2018-05-25T16:31:15.105Z,1024.79
2018-05-25T16:32:42.754Z,1024.79
2018-05-25T16:34:10.230Z,1024.77
2018-05-25T16:35:37.731Z,1024.76
2018-05-25T16:37:05.433Z,1024.76
2018-05-25T16:38:33.109Z,1024.79
2018-05-25T16:40:00.389Z,1024.83
2018-05-25T16:41:27.938Z,1024.81
2018-05-25T16:42:55.272Z,1024.82
2018-05-25T16:44:22.830Z,1024.83
2018-05-25T16:45:50.381Z,1024.85
2018-05-25T16:47:17.959Z,1024.88
2018-05-25T16:48:45.239Z,1024.89
2018-05-25T16:50:13.002Z,1024.91
2018-05-25T16:51:40.170Z,1024.88
2018-05-25T16:53:07.786Z,1024.89
2018-05-25T16:54:35.233Z,1024.87
2018-05-25T16:56:02.719Z,1024.90
2018-05-25T16:57:29.940Z,1024.87
2018-05-25T16:58:57.312Z,1024.90
2018-05-25T17:00:24.852Z,1024.91
2018-05-25T17:01:52.182Z,1024.92
2018-05-25T17:03:18.855Z,1024.91
2018-05-25T17:04:46.108Z,1024.88
2018-05-25T17:06:13.661Z,1024.89
2018-05-25T17:07:40.831Z,1024.87
2018-05-25T17:09:07.984Z,1024.88
2018-05-25T17:10:35.179Z,1024.89
2018-05-25T17:12:02.659Z,1024.86
2018-05-25T17:13:29.619Z,1024.86
2018-05-25T17:14:57.084Z,1024.88
2018-05-25T17:16:24.521Z,1024.90
2018-05-25T17:17:51.927Z,1024.89
2018-05-25T17:19:19.579Z,1024.89
2018-05-25T17:20:47.185Z,1024.91
2018-05-25T17:22:14.512Z,1024.90
2018-05-25T17:23:41.939Z,1024.92
2018-05-25T17:25:08.978Z,1024.92
2018-05-25T17:26:36.538Z,1024.92
2018-05-25T17:28:04.175Z,1024.91
2018-05-25T17:29:31.668Z,1024.92
2018-05-25T17:30:59.061Z,1024.92
2018-05-25T17:32:26.601Z,1024.97
2018-05-25T17:33:53.969Z,1024.99
2018-05-25T17:35:21.384Z,1025.04
2018-05-25T17:36:48.950Z,1025.03